Station info - map view · info · telemetry · weather · raw · status · beacons · messages · bulletins · browse · moving · my account
Callsign, ship name or locator: Clear       
It is possible to search using wildcards (*?) after a prefix. Example: OH*
APRS station KC9DCO-9 - show graphs
Map loading...
Comment: SN! travelling
Mic-E message: En route
Location: 36°07.89' N 97°02.76' W - locator EM16LD41LN - show map - static map
1.3 miles Northeast bearing 32° from Stillwater, Payne County, Oklahoma, United States [?]
10.9 miles North bearing 356° from Perkins, Payne County, Oklahoma, United States
52.9 miles Northeast bearing 30° from Oklahoma City, Oklahoma County, Oklahoma, United States
58.7 miles West bearing 269° from Tulsa, Tulsa County, Oklahoma, United States
Last position: 2017-09-18 19:18:55 EDT (6d 17h51m ago)
2017-09-18 18:18:55 CDT local time at Stillwater, United States [?]
Altitude: 896 ft
Course: 94°
Speed: 12 MPH
Last telemetry: 2016-05-11 13:41:23 EDT (501d 23h28m ago) – show telemetry
Ch 1: 539, Ch 2: 631, Ch 3: 0, Ch 4: 0, Ch 5: 0
 1     2     3     4     5     6     7     8 
Device: Yaesu: FTM-350 (rig)
Last path: KC9DCO-9>SV0W8Y via STLWTR*,MOUNDS*,WIDE2*,qAR,N5TEX-1 (good)
Positions stored: 30449
Other SSIDs: KC9DCO-1
Stations near current position of KC9DCO-9 - show more
callsign distance last heard - EDT      callsign distance last heard - EDT
KC9DCO-126.6 yards 219°2017-09-25 07:58:31 KP4DJT-52.0 miles 235°2017-09-25 13:08:41
EW94803.8 miles 224°2017-09-25 12:54:32 K5GTE-74.2 miles 256°2017-09-25 12:13:12
WD0AJG5.8 miles 251°2017-09-25 13:05:09 WD0AJG-155.8 miles 251°2017-09-25 13:07:28
EW42837.1 miles 30°2017-09-25 13:01:05 145.35-ST8.4 miles 263°2017-09-25 13:03:18
STLWTR8.5 miles 259°2017-09-25 12:44:33 K5NOV17.8 miles 311°2017-09-23 23:37:48
281616q3527.7 miles 292°2017-08-30 02:51:25
Stations which heard KC9DCO-9 directly on radio –
callsign pkts first heard - EDT last heard longest (tx => rx) longest at - EDT
N0KTA-2 37 2017-09-02 11:04:10 2017-09-04 16:52:47 EM17HE > EM17JL 21.9 miles 14° 2017-09-02 11:04:10
N0KTA 48 2017-09-02 11:06:58 2017-09-04 16:53:22 EM17OV > EM17JN 30.6 miles 220° 2017-09-02 13:40:40
W0JRT 6 2017-09-02 16:17:52 2017-09-03 14:40:47 EM28OX > EM28OW 3.8 miles 96° 2017-09-03 14:35:19
AC0HY 14 2017-09-03 15:35:43 2017-09-03 17:40:11 EM28BT > EM29DC 21.1 miles 23° 2017-09-03 17:40:11
N0PTL 1 2017-09-03 14:37:50 2017-09-03 14:37:50 EM28OW > EM28PX 5.6 miles 87° 2017-09-03 14:37:50
KC0U-1 17 2017-09-02 14:19:32 2017-09-03 19:19:37 EM18RJ > EM18WC 29.8 miles 131° 2017-09-03 19:19:37
AB0MB-1 6 2017-09-03 15:30:47 2017-09-03 17:26:02 EM29EA > EM29DA 5.6 miles 252° 2017-09-03 15:30:47
W0BZN 23 2017-09-03 20:03:47 2017-09-04 14:30:43 EM18JG > EM18HB 18.1 miles 204° 2017-09-03 20:03:47
PONCA 65 2017-09-02 09:44:41 2017-09-18 08:31:14 EM16LD > EM16JQ 39.0 miles 351° 2017-09-02 09:44:41
MATFLD 23 2017-09-02 13:44:40 2017-09-03 19:52:17 EM18KI > EM18SD 39.8 miles 112° 2017-09-03 19:52:17
BASHOR 49 2017-09-02 15:56:05 2017-09-03 17:13:31 EM29DB > EM29MC 43.2 miles 86° 2017-09-03 17:13:31
HOYT 27 2017-09-03 15:14:30 2017-09-03 17:28:54 EM28HX > EM29EG 24.9 miles 317° 2017-09-03 15:14:30
LSBRG 12 2017-09-02 15:40:31 2017-09-02 16:12:38 EM28JO > EM28QN 33.7 miles 90° 2017-09-02 15:40:31
KEETON 7 2017-09-02 10:00:50 2017-09-02 10:44:36 EM16HT > EM26DH 96.5 miles 110° 2017-09-02 10:44:36
STLWTR 29 2017-09-01 10:25:06 2017-09-18 19:18:43 EM16IJ > EM16JC 21.4 miles 160° 2017-09-04 17:44:09
AUBURN 13 2017-09-02 15:07:30 2017-09-03 17:58:26 EM28BK > EM28CX 37.8 miles 2° 2017-09-02 15:07:30
WX0U-2 16 2017-09-02 14:40:38 2017-09-03 19:09:23 EM18UI > EM18VJ 6.1 miles 43° 2017-09-02 14:40:38
OMC 1 2017-09-02 16:26:11 2017-09-02 16:26:11 EM28OX > EM28OU 8.2 miles 178° 2017-09-02 16:26:11
KD0IQK-5 11 2017-09-02 15:51:44 2017-09-03 15:09:02 EM28IW > EM28MT 24.0 miles 114° 2017-09-03 15:09:02
EMPRIA 32 2017-09-02 14:13:38 2017-09-03 19:31:29 EM18RC > EM18VJ 29.7 miles 47° 2017-09-02 14:13:38
TNGNXI 5 2017-09-02 15:44:16 2017-09-03 14:45:55 EM28JP > EM29KC 33.0 miles 9° 2017-09-02 15:44:16
MILLER 2 2017-09-02 14:57:53 2017-09-03 19:15:45 EM18SJ > EM28AP 29.5 miles 55° 2017-09-03 19:15:45
W0SY-1 11 2017-09-02 11:25:12 2017-09-04 16:33:32 EM17IP > EM17HN 6.0 miles 220° 2017-09-04 16:23:58
K0SCR-1 3 2017-09-02 11:03:41 2017-09-02 13:14:44 EM17HE > EM17CP 39.8 miles 323° 2017-09-02 11:03:41
NORMAN 1 2017-09-02 09:55:32 2017-09-02 09:55:32 EM16LE > EM15HF 67.5 miles 193° 2017-09-02 09:55:32
K0KU 8 2017-09-02 15:46:52 2017-09-03 15:12:18 EM28JP > EM28IW 20.9 miles 349° 2017-09-02 15:46:52
DEPEW 2 2017-09-02 10:09:52 2017-09-04 18:15:51 EM16LJ > EM15RT 49.0 miles 145° 2017-09-02 10:09:52
MCPHRS 13 2017-09-03 19:46:45 2017-09-04 13:43:49 EM18LI > EM18EL 33.2 miles 283° 2017-09-03 19:46:45

Only position packets which were originated by the station are shown here. The range statistics show some extra long hops, because some digipeaters do not correctly add themselves to the digipeater path. Please check the raw packets.
About this site
This page shows real-time information collected from the Automatic Position Reporting System Internet network (APRS-IS). APRS is used by amateur (ham) radio operators to transmit real-time position information, weather data, telemetry and messages over the radio. A vehicle equipped with a GPS receiver, a VHF transmitter or HF transceiver and a small computer device called a tracker transmits it's location, speed and course in a small data packet, which is then received by a nearby iGate receiving site which forwards the packet on the Internet. Systems connected to the Internet can send information on the APRS-IS without a radio transmitter, or collect and display information transmitted anywhere in the world.
FAQ · Blog · Discussion group · Linking to aprs.fi · AIS sites · Service status · Database statistics · Advertising on aprs.fi · Technical details · API · Change log · Planned changes · Credits and thanks · Terms Of Service · iPhone/iPad APRS